Grandfalls, Texas
Current Conditions -  °F | °C
As of 5:53 AM on Tuesday 21 Oct 2014 (Local Time) from KFST Reporting Station
Overcast Overcast  
Wind Chill: 61°   Ceiling: 2800
Heat Index: 61°   Visibility: 10mi
Dew Point: 59°   Wind: 6mph
Humidity: 93%   Direction: 100°E
Pressure: 30.07"   Gusts: NA
Location:  31.34°N, 102.85°W
Report Text: KFST 211053Z AUTO 10005KT 10SM BKN028 OVC060 16/15 A3007 RMK AO2 SLP147 T01610150 PNO $
Loading
Personal Weather Stations






























Interactive Weather Map
Tropical Storm Tracking
New forecast layout! Learn more

10-Day Weather Forecast

Advertisements
Track Severe Weather on mobile